Startpagina
METAR-TAF:

METAR-TAF

Vliegvelden :

Aeropuerto Internacional de Maiquetía Simón Bolívar

Caracas, Venezuela

breedte: 10-36N, lengte: 066-59W, hoogte: 43 m

Actueel weer

Dit bericht is 54 minuten geleden gemaakt, om 13:00 UTC
Wind 6 kt uit het oostnoordoosten
Temperatuur 26°C
Vochtigheid 84%
Druk 1006 hPa
Zicht 10 km of meer
Verspreide wolken op 1600 ft

METAR: SVMI 231300Z 07006KT 9999 SCT016 26/23 Q1006

Tijdstip: 09:54 (13:54 UTC)

Verwachting

Verwachting geldig van 23 om 12 UTC tot 24 om 06 UTC
Wind 9 kt uit het oosten
Zicht 10 km of meer
Verspreide wolken op 1600 ft
Wijzigt naar
van 23 om 06 UTC tot 23 om 10 UTC
Zicht: 9000 m
Weinig wolken op 1600 ft
Verspreide wolken op 7000 ft

TAF: SVMI 2312/2406 09009KT 9999 SCT016 TX34/19Z TN24/09Z BECMG 2306/2310 0905KT 9000 FEW016 SCT070

Waarnemingen en weersverwachtingen van meer dan 4000 vliegvelden (METAR en TAF).

De beschikbare stations zijn de gele en rode punten op de kaart.

Ga met uw muis naar het station om de naam te zien.

Klik dan om waarnemingen en weersverwachtingen te zien.

kaart wijzigen: klik op de groene knoppen met een zwart kruis om in te zoomen, op de groene knop met een streepje om uit te zoomen of op de groene pijlen voor aangrenzende kaarten.


METAR-TAF: